sensor_id;sensor_type;location;lat;lon;timestamp;temperature;humidity
51765;DHT22;37835;53.256;6.456;2023-09-07T19:37:35;23.70;99.90
51765;DHT22;37835;53.256;6.456;2023-09-07T19:40:01;23.60;99.90
51765;DHT22;37835;53.256;6.456;2023-09-07T19:42:27;23.60;99.90
51765;DHT22;37835;53.256;6.456;2023-09-07T19:44:52;23.60;99.90
51765;DHT22;37835;53.256;6.456;2023-09-07T19:47:19;23.60;99.90
51765;DHT22;37835;53.256;6.456;2023-09-07T19:49:45;23.50;99.90
51765;DHT22;37835;53.256;6.456;2023-09-07T19:52:11;23.50;99.90
51765;DHT22;37835;53.256;6.456;2023-09-07T19:54:37;23.50;99.90
51765;DHT22;37835;53.256;6.456;2023-09-07T19:57:02;23.50;99.90
51765;DHT22;37835;53.256;6.456;2023-09-07T19:59:28;23.50;99.90
51765;DHT22;37835;53.256;6.456;2023-09-07T20:01:55;23.50;99.90
51765;DHT22;37835;53.256;6.456;2023-09-07T20:04:22;23.50;99.90
51765;DHT22;37835;53.256;6.456;2023-09-07T20:06:48;23.50;99.90
51765;DHT22;37835;53.256;6.456;2023-09-07T20:09:15;23.60;99.90
51765;DHT22;37835;53.256;6.456;2023-09-07T20:11:44;23.50;99.90
51765;DHT22;37835;53.256;6.456;2023-09-07T20:14:10;23.40;99.90
51765;DHT22;37835;53.256;6.456;2023-09-07T20:16:35;23.40;99.90
51765;DHT22;37835;53.256;6.456;2023-09-07T20:19:01;23.40;99.90
51765;DHT22;37835;53.256;6.456;2023-09-07T20:21:26;23.30;99.90
51765;DHT22;37835;53.256;6.456;2023-09-07T20:23:52;23.30;99.90
51765;DHT22;37835;53.256;6.456;2023-09-07T20:26:18;23.10;99.90
51765;DHT22;37835;53.256;6.456;2023-09-07T20:28:43;23.10;99.90
51765;DHT22;37835;53.256;6.456;2023-09-07T20:31:13;23.00;99.90
51765;DHT22;37835;53.256;6.456;2023-09-07T20:33:39;23.00;99.90
51765;DHT22;37835;53.256;6.456;2023-09-07T20:36:05;22.90;99.90
51765;DHT22;37835;53.256;6.456;2023-09-07T20:38:32;22.90;99.90
51765;DHT22;37835;53.256;6.456;2023-09-07T20:40:58;22.80;99.90
51765;DHT22;37835;53.256;6.456;2023-09-07T20:43:24;22.70;99.90
51765;DHT22;37835;53.256;6.456;2023-09-07T20:45:52;22.80;99.90
51765;DHT22;37835;53.256;6.456;2023-09-07T20:48:18;22.60;99.90
51765;DHT22;37835;53.256;6.456;2023-09-07T20:50:45;22.60;99.90
51765;DHT22;37835;53.256;6.456;2023-09-07T20:53:11;22.50;99.90
51765;DHT22;37835;53.256;6.456;2023-09-07T20:55:37;22.50;99.90
51765;DHT22;37835;53.256;6.456;2023-09-07T20:58:03;22.40;99.90
51765;DHT22;37835;53.256;6.456;2023-09-07T21:00:32;22.30;99.90
51765;DHT22;37835;53.256;6.456;2023-09-07T21:02:58;22.30;99.90
51765;DHT22;37835;53.256;6.456;2023-09-07T21:05:24;22.20;99.90
51765;DHT22;37835;53.256;6.456;2023-09-07T21:07:49;22.30;99.90
51765;DHT22;37835;53.256;6.456;2023-09-07T21:10:15;22.20;99.90
51765;DHT22;37835;53.256;6.456;2023-09-07T21:12:42;22.10;99.90
51765;DHT22;37835;53.256;6.456;2023-09-07T21:15:08;22.00;99.90
51765;DHT22;37835;53.256;6.456;2023-09-07T21:17:37;21.90;99.90
51765;DHT22;37835;53.256;6.456;2023-09-07T21:20:04;22.00;99.90
51765;DHT22;37835;53.256;6.456;2023-09-07T21:22:30;21.90;99.90
51765;DHT22;37835;53.256;6.456;2023-09-07T21:24:56;21.90;99.90
51765;DHT22;37835;53.256;6.456;2023-09-07T21:27:21;21.80;99.90
51765;DHT22;37835;53.256;6.456;2023-09-07T21:29:47;21.70;99.90
51765;DHT22;37835;53.256;6.456;2023-09-07T21:32:13;21.70;99.90
51765;DHT22;37835;53.256;6.456;2023-09-07T21:34:38;21.60;99.90
51765;DHT22;37835;53.256;6.456;2023-09-07T21:37:04;21.60;99.90
51765;DHT22;37835;53.256;6.456;2023-09-07T21:39:32;21.60;99.90
51765;DHT22;37835;53.256;6.456;2023-09-07T21:41:58;21.60;99.90
51765;DHT22;37835;53.256;6.456;2023-09-07T21:44:24;21.60;99.90
51765;DHT22;37835;53.256;6.456;2023-09-07T21:46:49;21.60;99.90
51765;DHT22;37835;53.256;6.456;2023-09-07T21:49:16;21.50;99.90
51765;DHT22;37835;53.256;6.456;2023-09-07T21:51:44;21.50;99.90
51765;DHT22;37835;53.256;6.456;2023-09-07T21:54:10;21.50;99.90
51765;DHT22;37835;53.256;6.456;2023-09-07T21:56:35;21.50;99.90
51765;DHT22;37835;53.256;6.456;2023-09-07T21:59:01;21.50;99.90
51765;DHT22;37835;53.256;6.456;2023-09-07T22:01:27;21.40;99.90
51765;DHT22;37835;53.256;6.456;2023-09-07T22:03:53;21.40;99.90
51765;DHT22;37835;53.256;6.456;2023-09-07T22:06:22;21.40;99.90
51765;DHT22;37835;53.256;6.456;2023-09-07T22:08:48;21.30;99.90
51765;DHT22;37835;53.256;6.456;2023-09-07T22:11:14;21.30;99.90
51765;DHT22;37835;53.256;6.456;2023-09-07T22:13:39;21.30;99.90
51765;DHT22;37835;53.256;6.456;2023-09-07T22:16:05;21.30;99.90
51765;DHT22;37835;53.256;6.456;2023-09-07T22:18:30;21.20;99.90
51765;DHT22;37835;53.256;6.456;2023-09-07T22:20:57;21.20;99.90
51765;DHT22;37835;53.256;6.456;2023-09-07T22:23:22;21.10;99.90
51765;DHT22;37835;53.256;6.456;2023-09-07T22:25:49;21.10;99.90
51765;DHT22;37835;53.256;6.456;2023-09-07T22:28:14;21.00;99.90
51765;DHT22;37835;53.256;6.456;2023-09-07T22:30:40;21.00;99.90
51765;DHT22;37835;53.256;6.456;2023-09-07T22:33:06;21.00;99.90
51765;DHT22;37835;53.256;6.456;2023-09-07T22:35:33;20.90;99.90
51765;DHT22;37835;53.256;6.456;2023-09-07T22:37:58;20.90;99.90
51765;DHT22;37835;53.256;6.456;2023-09-07T22:40:25;20.80;99.90
51765;DHT22;37835;53.256;6.456;2023-09-07T22:42:50;20.90;99.90
51765;DHT22;37835;53.256;6.456;2023-09-07T22:45:16;20.70;99.90
51765;DHT22;37835;53.256;6.456;2023-09-07T22:47:42;20.70;99.90
51765;DHT22;37835;53.256;6.456;2023-09-07T22:50:08;20.70;99.90
51765;DHT22;37835;53.256;6.456;2023-09-07T22:52:34;20.60;99.90
51765;DHT22;37835;53.256;6.456;2023-09-07T22:55:05;20.70;99.90
51765;DHT22;37835;53.256;6.456;2023-09-07T22:57:32;20.60;99.90
51765;DHT22;37835;53.256;6.456;2023-09-07T22:59:58;20.50;99.90
51765;DHT22;37835;53.256;6.456;2023-09-07T23:02:24;20.50;99.90
51765;DHT22;37835;53.256;6.456;2023-09-07T23:04:54;20.50;99.90
51765;DHT22;37835;53.256;6.456;2023-09-07T23:07:23;20.50;99.90
51765;DHT22;37835;53.256;6.456;2023-09-07T23:09:49;20.40;99.90
51765;DHT22;37835;53.256;6.456;2023-09-07T23:12:15;20.50;99.90
51765;DHT22;37835;53.256;6.456;2023-09-07T23:14:41;20.50;99.90
51765;DHT22;37835;53.256;6.456;2023-09-07T23:17:06;20.40;99.90
51765;DHT22;37835;53.256;6.456;2023-09-07T23:19:32;20.40;99.90
51765;DHT22;37835;53.256;6.456;2023-09-07T23:21:57;20.30;99.90
51765;DHT22;37835;53.256;6.456;2023-09-07T23:24:24;20.30;99.90
51765;DHT22;37835;53.256;6.456;2023-09-07T23:26:49;20.30;99.90
51765;DHT22;37835;53.256;6.456;2023-09-07T23:29:16;20.30;99.90
51765;DHT22;37835;53.256;6.456;2023-09-07T23:31:42;20.20;99.90
51765;DHT22;37835;53.256;6.456;2023-09-07T23:34:09;20.10;99.90
51765;DHT22;37835;53.256;6.456;2023-09-07T23:36:35;20.10;99.90
51765;DHT22;37835;53.256;6.456;2023-09-07T23:39:01;20.10;99.90
51765;DHT22;37835;53.256;6.456;2023-09-07T23:41:27;20.00;99.90
51765;DHT22;37835;53.256;6.456;2023-09-07T23:43:52;20.00;99.90
51765;DHT22;37835;53.256;6.456;2023-09-07T23:46:18;19.90;99.90
51765;DHT22;37835;53.256;6.456;2023-09-07T23:48:43;19.90;99.90
51765;DHT22;37835;53.256;6.456;2023-09-07T23:51:09;19.80;99.90
51765;DHT22;37835;53.256;6.456;2023-09-07T23:53:34;19.70;99.90
51765;DHT22;37835;53.256;6.456;2023-09-07T23:56:00;19.70;99.90
51765;DHT22;37835;53.256;6.456;2023-09-07T23:58:25;19.60;99.90
